sensor_id;sensor_type;location;lat;lon;timestamp;P1;durP1;ratioP1;P2;durP2;ratioP2
8694;SDS011;65580;49.446;6.854;2022-12-07T00:03:07;17.27;;;8.38;;
8694;SDS011;65580;49.446;6.854;2022-12-07T00:07:09;16.20;;;7.97;;
8694;SDS011;65580;49.446;6.854;2022-12-07T00:11:12;22.48;;;9.88;;
8694;SDS011;65580;49.446;6.854;2022-12-07T00:15:16;35.83;;;11.90;;
8694;SDS011;65580;49.446;6.854;2022-12-07T00:19:18;23.88;;;10.13;;
8694;SDS011;65580;49.446;6.854;2022-12-07T00:23:20;30.70;;;12.55;;
8694;SDS011;65580;49.446;6.854;2022-12-07T00:27:23;32.38;;;12.38;;
8694;SDS011;65580;49.446;6.854;2022-12-07T00:31:27;30.00;;;12.13;;
8694;SDS011;65580;49.446;6.854;2022-12-07T00:35:29;22.92;;;11.05;;
8694;SDS011;65580;49.446;6.854;2022-12-07T00:39:31;19.27;;;10.02;;
8694;SDS011;65580;49.446;6.854;2022-12-07T00:43:33;19.27;;;9.10;;
8694;SDS011;65580;49.446;6.854;2022-12-07T00:47:37;43.25;;;16.05;;
8694;SDS011;65580;49.446;6.854;2022-12-07T00:51:39;27.38;;;11.23;;
8694;SDS011;65580;49.446;6.854;2022-12-07T00:55:41;38.53;;;14.50;;
8694;SDS011;65580;49.446;6.854;2022-12-07T00:59:42;24.20;;;10.68;;
8694;SDS011;65580;49.446;6.854;2022-12-07T01:03:46;24.33;;;10.63;;
8694;SDS011;65580;49.446;6.854;2022-12-07T01:07:48;24.77;;;10.10;;
8694;SDS011;65580;49.446;6.854;2022-12-07T01:11:49;21.65;;;10.13;;
8694;SDS011;65580;49.446;6.854;2022-12-07T01:15:51;19.38;;;9.48;;
8694;SDS011;65580;49.446;6.854;2022-12-07T01:19:59;18.63;;;9.35;;
8694;SDS011;65580;49.446;6.854;2022-12-07T01:24:01;41.53;;;14.00;;
8694;SDS011;65580;49.446;6.854;2022-12-07T01:28:03;23.25;;;10.38;;
8694;SDS011;65580;49.446;6.854;2022-12-07T01:32:06;24.58;;;11.55;;
8694;SDS011;65580;49.446;6.854;2022-12-07T01:36:12;24.70;;;10.70;;
8694;SDS011;65580;49.446;6.854;2022-12-07T01:40:17;22.85;;;9.48;;
8694;SDS011;65580;49.446;6.854;2022-12-07T01:44:20;25.10;;;10.10;;
8694;SDS011;65580;49.446;6.854;2022-12-07T01:52:28;28.23;;;10.60;;
8694;SDS011;65580;49.446;6.854;2022-12-07T01:56:32;20.75;;;10.02;;
8694;SDS011;65580;49.446;6.854;2022-12-07T02:00:34;37.78;;;13.80;;
8694;SDS011;65580;49.446;6.854;2022-12-07T02:04:36;23.67;;;10.45;;
8694;SDS011;65580;49.446;6.854;2022-12-07T02:08:39;25.10;;;10.70;;
8694;SDS011;65580;49.446;6.854;2022-12-07T02:12:41;33.45;;;13.50;;
8694;SDS011;65580;49.446;6.854;2022-12-07T02:16:47;22.33;;;10.63;;
8694;SDS011;65580;49.446;6.854;2022-12-07T02:20:57;37.90;;;14.32;;
8694;SDS011;65580;49.446;6.854;2022-12-07T02:25:07;25.23;;;11.07;;
8694;SDS011;65580;49.446;6.854;2022-12-07T02:29:13;23.00;;;9.73;;
8694;SDS011;65580;49.446;6.854;2022-12-07T02:33:18;24.35;;;10.48;;
8694;SDS011;65580;49.446;6.854;2022-12-07T02:37:27;25.52;;;10.60;;
8694;SDS011;65580;49.446;6.854;2022-12-07T02:41:37;20.17;;;9.65;;
8694;SDS011;65580;49.446;6.854;2022-12-07T02:45:45;26.73;;;10.80;;
8694;SDS011;65580;49.446;6.854;2022-12-07T02:49:47;25.05;;;10.55;;
8694;SDS011;65580;49.446;6.854;2022-12-07T02:53:50;50.33;;;14.30;;
8694;SDS011;65580;49.446;6.854;2022-12-07T02:58:05;41.00;;;14.25;;
8694;SDS011;65580;49.446;6.854;2022-12-07T03:02:17;21.00;;;9.15;;
8694;SDS011;65580;49.446;6.854;2022-12-07T03:06:24;37.75;;;13.00;;
8694;SDS011;65580;49.446;6.854;2022-12-07T03:10:33;39.72;;;13.63;;
8694;SDS011;65580;49.446;6.854;2022-12-07T03:14:39;23.08;;;10.52;;
8694;SDS011;65580;49.446;6.854;2022-12-07T03:18:45;21.17;;;9.65;;
8694;SDS011;65580;49.446;6.854;2022-12-07T03:22:49;25.10;;;9.85;;
8694;SDS011;65580;49.446;6.854;2022-12-07T03:26:53;22.67;;;9.32;;
8694;SDS011;65580;49.446;6.854;2022-12-07T03:30:59;21.27;;;9.40;;
8694;SDS011;65580;49.446;6.854;2022-12-07T03:35:05;23.60;;;9.68;;
8694;SDS011;65580;49.446;6.854;2022-12-07T03:39:13;20.85;;;9.73;;
8694;SDS011;65580;49.446;6.854;2022-12-07T03:43:19;20.25;;;9.40;;
8694;SDS011;65580;49.446;6.854;2022-12-07T03:47:22;19.92;;;9.23;;
8694;SDS011;65580;49.446;6.854;2022-12-07T03:51:30;23.52;;;9.70;;
8694;SDS011;65580;49.446;6.854;2022-12-07T03:55:39;22.83;;;9.85;;
8694;SDS011;65580;49.446;6.854;2022-12-07T03:59:43;24.15;;;9.90;;
8694;SDS011;65580;49.446;6.854;2022-12-07T04:03:46;22.83;;;9.88;;
8694;SDS011;65580;49.446;6.854;2022-12-07T04:07:49;21.10;;;9.93;;
8694;SDS011;65580;49.446;6.854;2022-12-07T04:11:51;26.60;;;10.68;;
8694;SDS011;65580;49.446;6.854;2022-12-07T04:15:53;46.15;;;14.25;;
8694;SDS011;65580;49.446;6.854;2022-12-07T04:19:55;74.15;;;18.20;;
8694;SDS011;65580;49.446;6.854;2022-12-07T04:23:59;27.58;;;11.27;;
8694;SDS011;65580;49.446;6.854;2022-12-07T04:28:00;69.18;;;19.13;;
8694;SDS011;65580;49.446;6.854;2022-12-07T04:32:02;25.30;;;11.18;;
8694;SDS011;65580;49.446;6.854;2022-12-07T04:36:05;26.60;;;10.45;;
8694;SDS011;65580;49.446;6.854;2022-12-07T04:40:09;25.70;;;10.45;;
8694;SDS011;65580;49.446;6.854;2022-12-07T04:44:14;32.33;;;12.27;;
8694;SDS011;65580;49.446;6.854;2022-12-07T04:48:17;41.55;;;14.07;;
8694;SDS011;65580;49.446;6.854;2022-12-07T04:52:19;37.42;;;12.80;;
8694;SDS011;65580;49.446;6.854;2022-12-07T04:56:22;56.63;;;15.80;;
8694;SDS011;65580;49.446;6.854;2022-12-07T05:00:24;31.48;;;12.80;;
8694;SDS011;65580;49.446;6.854;2022-12-07T05:04:26;24.27;;;11.52;;
8694;SDS011;65580;49.446;6.854;2022-12-07T05:08:28;27.15;;;11.18;;
8694;SDS011;65580;49.446;6.854;2022-12-07T05:12:32;36.72;;;14.60;;
8694;SDS011;65580;49.446;6.854;2022-12-07T05:16:34;31.10;;;12.57;;
8694;SDS011;65580;49.446;6.854;2022-12-07T05:20:36;40.28;;;13.88;;
8694;SDS011;65580;49.446;6.854;2022-12-07T05:24:38;28.02;;;11.52;;
8694;SDS011;65580;49.446;6.854;2022-12-07T05:28:41;30.10;;;12.02;;
8694;SDS011;65580;49.446;6.854;2022-12-07T05:32:43;32.47;;;12.85;;
8694;SDS011;65580;49.446;6.854;2022-12-07T05:36:45;33.78;;;13.95;;
8694;SDS011;65580;49.446;6.854;2022-12-07T05:40:48;34.92;;;13.98;;
8694;SDS011;65580;49.446;6.854;2022-12-07T05:44:52;39.20;;;13.88;;
8694;SDS011;65580;49.446;6.854;2022-12-07T05:48:54;34.35;;;12.48;;
8694;SDS011;65580;49.446;6.854;2022-12-07T05:52:56;37.72;;;12.57;;
8694;SDS011;65580;49.446;6.854;2022-12-07T05:56:59;36.97;;;13.32;;
8694;SDS011;65580;49.446;6.854;2022-12-07T06:01:02;30.33;;;12.25;;
8694;SDS011;65580;49.446;6.854;2022-12-07T06:05:04;40.95;;;13.13;;
8694;SDS011;65580;49.446;6.854;2022-12-07T06:09:07;47.55;;;14.82;;
8694;SDS011;65580;49.446;6.854;2022-12-07T06:13:09;46.38;;;15.60;;
8694;SDS011;65580;49.446;6.854;2022-12-07T06:17:12;31.63;;;12.20;;
8694;SDS011;65580;49.446;6.854;2022-12-07T06:21:15;39.40;;;14.23;;
8694;SDS011;65580;49.446;6.854;2022-12-07T06:25:17;50.67;;;15.95;;
8694;SDS011;65580;49.446;6.854;2022-12-07T06:29:19;53.55;;;16.23;;
8694;SDS011;65580;49.446;6.854;2022-12-07T06:33:23;39.20;;;14.13;;
8694;SDS011;65580;49.446;6.854;2022-12-07T06:37:25;39.70;;;15.20;;
8694;SDS011;65580;49.446;6.854;2022-12-07T06:41:27;58.00;;;16.48;;
8694;SDS011;65580;49.446;6.854;2022-12-07T06:45:29;31.77;;;12.38;;
8694;SDS011;65580;49.446;6.854;2022-12-07T06:49:32;37.50;;;13.73;;
8694;SDS011;65580;49.446;6.854;2022-12-07T06:53:34;32.78;;;13.68;;
8694;SDS011;65580;49.446;6.854;2022-12-07T06:57:36;33.88;;;13.27;;
8694;SDS011;65580;49.446;6.854;2022-12-07T07:01:37;35.25;;;14.10;;
8694;SDS011;65580;49.446;6.854;2022-12-07T07:05:41;37.17;;;13.68;;
8694;SDS011;65580;49.446;6.854;2022-12-07T07:09:43;30.30;;;13.63;;
8694;SDS011;65580;49.446;6.854;2022-12-07T07:13:45;32.88;;;13.45;;
8694;SDS011;65580;49.446;6.854;2022-12-07T07:17:47;55.83;;;16.42;;
8694;SDS011;65580;49.446;6.854;2022-12-07T07:21:50;44.20;;;14.95;;
8694;SDS011;65580;49.446;6.854;2022-12-07T07:25:52;33.85;;;13.60;;
8694;SDS011;65580;49.446;6.854;2022-12-07T07:29:54;34.05;;;14.40;;
8694;SDS011;65580;49.446;6.854;2022-12-07T07:33:55;38.72;;;14.98;;
8694;SDS011;65580;49.446;6.854;2022-12-07T07:37:59;40.60;;;14.85;;
8694;SDS011;65580;49.446;6.854;2022-12-07T07:42:00;35.40;;;14.65;;
8694;SDS011;65580;49.446;6.854;2022-12-07T07:46:02;34.88;;;15.32;;
8694;SDS011;65580;49.446;6.854;2022-12-07T07:50:05;53.75;;;17.50;;
8694;SDS011;65580;49.446;6.854;2022-12-07T07:54:09;36.05;;;14.35;;
8694;SDS011;65580;49.446;6.854;2022-12-07T07:58:10;47.35;;;16.58;;
8694;SDS011;65580;49.446;6.854;2022-12-07T08:02:14;42.55;;;17.02;;
8694;SDS011;65580;49.446;6.854;2022-12-07T08:06:17;60.38;;;20.15;;
8694;SDS011;65580;49.446;6.854;2022-12-07T08:10:20;39.95;;;16.38;;
8694;SDS011;65580;49.446;6.854;2022-12-07T08:14:22;36.15;;;15.10;;
8694;SDS011;65580;49.446;6.854;2022-12-07T08:18:23;45.17;;;18.45;;
8694;SDS011;65580;49.446;6.854;2022-12-07T08:22:26;51.60;;;20.00;;
8694;SDS011;65580;49.446;6.854;2022-12-07T08:26:29;42.53;;;17.75;;
8694;SDS011;65580;49.446;6.854;2022-12-07T08:30:31;51.03;;;19.67;;
8694;SDS011;65580;49.446;6.854;2022-12-07T08:34:33;59.28;;;20.67;;
8694;SDS011;65580;49.446;6.854;2022-12-07T08:38:34;49.30;;;18.48;;
8694;SDS011;65580;49.446;6.854;2022-12-07T08:42:38;51.00;;;18.48;;
8694;SDS011;65580;49.446;6.854;2022-12-07T08:46:40;49.28;;;18.13;;
8694;SDS011;65580;49.446;6.854;2022-12-07T08:54:45;56.88;;;18.95;;
8694;SDS011;65580;49.446;6.854;2022-12-07T08:58:50;56.45;;;19.10;;
8694;SDS011;65580;49.446;6.854;2022-12-07T09:02:52;66.53;;;20.67;;
8694;SDS011;65580;49.446;6.854;2022-12-07T09:06:54;46.85;;;17.20;;
8694;SDS011;65580;49.446;6.854;2022-12-07T09:10:56;50.63;;;18.55;;
8694;SDS011;65580;49.446;6.854;2022-12-07T09:15:00;54.13;;;18.98;;
8694;SDS011;65580;49.446;6.854;2022-12-07T09:19:02;59.58;;;18.70;;
8694;SDS011;65580;49.446;6.854;2022-12-07T09:23:05;50.40;;;18.85;;
8694;SDS011;65580;49.446;6.854;2022-12-07T09:27:06;41.53;;;16.98;;
8694;SDS011;65580;49.446;6.854;2022-12-07T09:31:10;43.78;;;15.93;;
8694;SDS011;65580;49.446;6.854;2022-12-07T09:35:11;42.72;;;16.48;;
8694;SDS011;65580;49.446;6.854;2022-12-07T09:39:13;40.63;;;16.10;;
8694;SDS011;65580;49.446;6.854;2022-12-07T09:55:13;32.58;;;14.00;;
8694;SDS011;65580;49.446;6.854;2022-12-07T09:59:17;29.50;;;11.98;;
8694;SDS011;65580;49.446;6.854;2022-12-07T10:03:20;24.70;;;10.75;;
8694;SDS011;65580;49.446;6.854;2022-12-07T10:07:22;26.30;;;11.13;;
8694;SDS011;65580;49.446;6.854;2022-12-07T10:11:25;30.83;;;12.45;;
8694;SDS011;65580;49.446;6.854;2022-12-07T10:15:43;28.63;;;11.68;;
8694;SDS011;65580;49.446;6.854;2022-12-07T10:19:47;30.13;;;12.00;;
8694;SDS011;65580;49.446;6.854;2022-12-07T10:24:01;22.60;;;10.55;;
8694;SDS011;65580;49.446;6.854;2022-12-07T10:32:36;25.33;;;11.05;;
8694;SDS011;65580;49.446;6.854;2022-12-07T10:36:39;27.38;;;11.43;;
8694;SDS011;65580;49.446;6.854;2022-12-07T10:40:40;27.60;;;11.32;;
8694;SDS011;65580;49.446;6.854;2022-12-07T10:44:43;24.35;;;10.32;;
8694;SDS011;65580;49.446;6.854;2022-12-07T10:48:46;24.63;;;9.57;;
8694;SDS011;65580;49.446;6.854;2022-12-07T10:52:58;21.05;;;9.02;;
8694;SDS011;65580;49.446;6.854;2022-12-07T10:57:13;20.35;;;8.25;;
8694;SDS011;65580;49.446;6.854;2022-12-07T11:01:25;9.65;;;5.63;;
8694;SDS011;65580;49.446;6.854;2022-12-07T11:05:31;10.05;;;5.35;;
8694;SDS011;65580;49.446;6.854;2022-12-07T11:09:47;16.02;;;6.63;;
8694;SDS011;65580;49.446;6.854;2022-12-07T11:13:55;13.00;;;6.07;;
8694;SDS011;65580;49.446;6.854;2022-12-07T11:18:01;12.18;;;5.85;;
8694;SDS011;65580;49.446;6.854;2022-12-07T11:22:09;10.55;;;5.18;;
8694;SDS011;65580;49.446;6.854;2022-12-07T11:26:18;19.98;;;7.53;;
8694;SDS011;65580;49.446;6.854;2022-12-07T11:30:26;11.43;;;5.63;;
8694;SDS011;65580;49.446;6.854;2022-12-07T11:34:34;9.30;;;4.63;;
8694;SDS011;65580;49.446;6.854;2022-12-07T11:38:41;9.73;;;4.60;;
8694;SDS011;65580;49.446;6.854;2022-12-07T11:42:45;10.70;;;4.40;;
8694;SDS011;65580;49.446;6.854;2022-12-07T11:46:50;8.77;;;4.68;;
8694;SDS011;65580;49.446;6.854;2022-12-07T11:50:57;11.18;;;5.30;;
8694;SDS011;65580;49.446;6.854;2022-12-07T11:54:59;13.93;;;5.50;;
8694;SDS011;65580;49.446;6.854;2022-12-07T11:59:01;11.90;;;5.10;;
8694;SDS011;65580;49.446;6.854;2022-12-07T12:03:07;9.82;;;4.90;;
8694;SDS011;65580;49.446;6.854;2022-12-07T12:07:15;11.20;;;4.28;;
8694;SDS011;65580;49.446;6.854;2022-12-07T12:11:22;9.70;;;4.60;;
8694;SDS011;65580;49.446;6.854;2022-12-07T12:15:38;7.25;;;4.22;;
8694;SDS011;65580;49.446;6.854;2022-12-07T12:19:56;9.90;;;4.40;;
8694;SDS011;65580;49.446;6.854;2022-12-07T12:24:02;8.73;;;4.10;;
8694;SDS011;65580;49.446;6.854;2022-12-07T12:28:15;8.63;;;3.67;;
8694;SDS011;65580;49.446;6.854;2022-12-07T12:32:22;10.25;;;4.93;;
8694;SDS011;65580;49.446;6.854;2022-12-07T12:36:43;10.48;;;4.85;;
8694;SDS011;65580;49.446;6.854;2022-12-07T12:40:47;10.18;;;5.30;;
8694;SDS011;65580;49.446;6.854;2022-12-07T12:49:30;12.93;;;4.82;;
8694;SDS011;65580;49.446;6.854;2022-12-07T12:53:34;13.35;;;4.93;;
8694;SDS011;65580;49.446;6.854;2022-12-07T12:57:37;10.45;;;4.60;;
8694;SDS011;65580;49.446;6.854;2022-12-07T13:01:40;10.88;;;4.53;;
8694;SDS011;65580;49.446;6.854;2022-12-07T13:05:42;8.82;;;4.13;;
8694;SDS011;65580;49.446;6.854;2022-12-07T13:09:44;9.40;;;3.90;;
8694;SDS011;65580;49.446;6.854;2022-12-07T13:13:47;10.00;;;4.00;;
8694;SDS011;65580;49.446;6.854;2022-12-07T13:18:00;12.23;;;4.20;;
8694;SDS011;65580;49.446;6.854;2022-12-07T13:22:27;8.05;;;3.63;;
8694;SDS011;65580;49.446;6.854;2022-12-07T13:26:38;10.07;;;3.53;;
8694;SDS011;65580;49.446;6.854;2022-12-07T13:30:45;8.50;;;3.78;;
8694;SDS011;65580;49.446;6.854;2022-12-07T13:34:48;9.05;;;3.50;;
8694;SDS011;65580;49.446;6.854;2022-12-07T13:38:51;7.13;;;2.92;;
8694;SDS011;65580;49.446;6.854;2022-12-07T13:42:58;6.57;;;3.05;;
8694;SDS011;65580;49.446;6.854;2022-12-07T13:47:04;8.75;;;3.70;;
8694;SDS011;65580;49.446;6.854;2022-12-07T13:51:14;9.95;;;3.85;;
8694;SDS011;65580;49.446;6.854;2022-12-07T13:59:20;11.23;;;4.63;;
8694;SDS011;65580;49.446;6.854;2022-12-07T14:03:27;27.25;;;10.45;;
8694;SDS011;65580;49.446;6.854;2022-12-07T14:07:31;45.15;;;17.17;;
8694;SDS011;65580;49.446;6.854;2022-12-07T14:11:35;13.85;;;5.53;;
8694;SDS011;65580;49.446;6.854;2022-12-07T14:15:38;13.55;;;6.55;;
8694;SDS011;65580;49.446;6.854;2022-12-07T14:19:43;7.38;;;4.18;;
8694;SDS011;65580;49.446;6.854;2022-12-07T14:24:09;8.55;;;3.90;;
8694;SDS011;65580;49.446;6.854;2022-12-07T14:28:24;11.20;;;4.05;;
8694;SDS011;65580;49.446;6.854;2022-12-07T14:32:28;10.38;;;3.92;;
8694;SDS011;65580;49.446;6.854;2022-12-07T14:36:32;9.70;;;4.35;;
8694;SDS011;65580;49.446;6.854;2022-12-07T14:40:33;12.88;;;4.13;;
8694;SDS011;65580;49.446;6.854;2022-12-07T14:44:35;9.55;;;4.70;;
8694;SDS011;65580;49.446;6.854;2022-12-07T14:48:37;15.98;;;5.28;;
8694;SDS011;65580;49.446;6.854;2022-12-07T14:52:40;14.15;;;5.60;;
8694;SDS011;65580;49.446;6.854;2022-12-07T14:56:43;11.88;;;5.80;;
8694;SDS011;65580;49.446;6.854;2022-12-07T15:00:45;13.88;;;5.97;;
8694;SDS011;65580;49.446;6.854;2022-12-07T15:04:48;13.38;;;6.15;;
8694;SDS011;65580;49.446;6.854;2022-12-07T15:08:51;10.70;;;5.07;;
8694;SDS011;65580;49.446;6.854;2022-12-07T15:12:52;10.52;;;5.13;;
8694;SDS011;65580;49.446;6.854;2022-12-07T15:16:54;16.52;;;6.30;;
8694;SDS011;65580;49.446;6.854;2022-12-07T15:20:56;11.68;;;5.25;;
8694;SDS011;65580;49.446;6.854;2022-12-07T15:24:59;24.40;;;10.70;;
8694;SDS011;65580;49.446;6.854;2022-12-07T15:29:01;13.43;;;6.07;;
8694;SDS011;65580;49.446;6.854;2022-12-07T15:33:03;15.07;;;6.82;;
8694;SDS011;65580;49.446;6.854;2022-12-07T15:37:05;16.15;;;6.22;;
8694;SDS011;65580;49.446;6.854;2022-12-07T15:41:09;12.65;;;6.18;;
8694;SDS011;65580;49.446;6.854;2022-12-07T15:45:10;15.30;;;5.43;;
8694;SDS011;65580;49.446;6.854;2022-12-07T15:49:14;12.95;;;5.78;;
8694;SDS011;65580;49.446;6.854;2022-12-07T15:53:17;10.23;;;4.85;;
8694;SDS011;65580;49.446;6.854;2022-12-07T15:57:20;13.18;;;5.10;;
8694;SDS011;65580;49.446;6.854;2022-12-07T16:01:22;12.15;;;5.60;;
8694;SDS011;65580;49.446;6.854;2022-12-07T16:05:23;17.98;;;6.63;;
8694;SDS011;65580;49.446;6.854;2022-12-07T16:09:25;17.25;;;7.20;;
8694;SDS011;65580;49.446;6.854;2022-12-07T16:13:28;15.48;;;6.63;;
8694;SDS011;65580;49.446;6.854;2022-12-07T16:17:30;16.13;;;5.90;;
8694;SDS011;65580;49.446;6.854;2022-12-07T16:21:33;12.93;;;5.70;;
8694;SDS011;65580;49.446;6.854;2022-12-07T16:25:35;25.55;;;8.40;;
8694;SDS011;65580;49.446;6.854;2022-12-07T16:29:38;14.18;;;6.78;;
8694;SDS011;65580;49.446;6.854;2022-12-07T16:33:41;16.98;;;8.00;;
8694;SDS011;65580;49.446;6.854;2022-12-07T16:37:44;29.67;;;10.82;;
8694;SDS011;65580;49.446;6.854;2022-12-07T16:41:45;15.45;;;6.93;;
8694;SDS011;65580;49.446;6.854;2022-12-07T16:45:49;25.33;;;9.95;;
8694;SDS011;65580;49.446;6.854;2022-12-07T16:49:51;31.58;;;13.18;;
8694;SDS011;65580;49.446;6.854;2022-12-07T16:53:54;34.97;;;12.57;;
8694;SDS011;65580;49.446;6.854;2022-12-07T16:57:56;29.65;;;12.18;;
8694;SDS011;65580;49.446;6.854;2022-12-07T17:02:00;27.92;;;11.00;;
8694;SDS011;65580;49.446;6.854;2022-12-07T17:06:02;24.88;;;10.68;;
8694;SDS011;65580;49.446;6.854;2022-12-07T17:10:05;25.50;;;11.40;;
8694;SDS011;65580;49.446;6.854;2022-12-07T17:14:07;28.98;;;11.43;;
8694;SDS011;65580;49.446;6.854;2022-12-07T17:18:29;29.55;;;12.40;;
8694;SDS011;65580;49.446;6.854;2022-12-07T17:22:31;25.17;;;10.23;;
8694;SDS011;65580;49.446;6.854;2022-12-07T17:26:33;28.80;;;10.70;;
8694;SDS011;65580;49.446;6.854;2022-12-07T17:30:36;23.98;;;10.18;;
8694;SDS011;65580;49.446;6.854;2022-12-07T17:34:41;27.25;;;11.00;;
8694;SDS011;65580;49.446;6.854;2022-12-07T17:42:44;21.92;;;9.40;;
8694;SDS011;65580;49.446;6.854;2022-12-07T17:46:51;24.27;;;9.25;;
8694;SDS011;65580;49.446;6.854;2022-12-07T17:51:00;29.35;;;10.15;;
8694;SDS011;65580;49.446;6.854;2022-12-07T17:55:19;26.80;;;9.65;;
8694;SDS011;65580;49.446;6.854;2022-12-07T17:59:21;20.52;;;9.25;;
8694;SDS011;65580;49.446;6.854;2022-12-07T18:03:23;21.95;;;8.95;;
8694;SDS011;65580;49.446;6.854;2022-12-07T18:07:26;22.08;;;9.27;;
8694;SDS011;65580;49.446;6.854;2022-12-07T18:11:28;23.85;;;10.05;;
8694;SDS011;65580;49.446;6.854;2022-12-07T18:15:30;25.00;;;9.88;;
8694;SDS011;65580;49.446;6.854;2022-12-07T18:19:32;25.80;;;10.35;;
8694;SDS011;65580;49.446;6.854;2022-12-07T18:23:37;26.85;;;10.35;;
8694;SDS011;65580;49.446;6.854;2022-12-07T18:27:39;23.73;;;9.82;;
8694;SDS011;65580;49.446;6.854;2022-12-07T18:31:41;23.70;;;9.85;;
8694;SDS011;65580;49.446;6.854;2022-12-07T18:35:43;27.67;;;10.85;;
8694;SDS011;65580;49.446;6.854;2022-12-07T18:39:47;27.33;;;10.82;;
8694;SDS011;65580;49.446;6.854;2022-12-07T18:43:49;33.70;;;11.85;;
8694;SDS011;65580;49.446;6.854;2022-12-07T18:47:51;28.17;;;10.45;;
8694;SDS011;65580;49.446;6.854;2022-12-07T18:51:53;28.92;;;10.70;;
8694;SDS011;65580;49.446;6.854;2022-12-07T18:56:01;27.30;;;10.73;;
8694;SDS011;65580;49.446;6.854;2022-12-07T19:00:04;29.98;;;12.18;;
8694;SDS011;65580;49.446;6.854;2022-12-07T19:04:07;36.13;;;12.20;;
8694;SDS011;65580;49.446;6.854;2022-12-07T19:08:09;27.75;;;11.10;;
8694;SDS011;65580;49.446;6.854;2022-12-07T19:12:13;21.20;;;9.82;;
8694;SDS011;65580;49.446;6.854;2022-12-07T19:16:15;27.85;;;10.43;;
8694;SDS011;65580;49.446;6.854;2022-12-07T19:20:17;30.50;;;12.27;;
8694;SDS011;65580;49.446;6.854;2022-12-07T19:24:19;29.10;;;11.20;;
8694;SDS011;65580;49.446;6.854;2022-12-07T19:28:23;25.73;;;10.85;;
8694;SDS011;65580;49.446;6.854;2022-12-07T19:32:24;28.13;;;11.85;;
8694;SDS011;65580;49.446;6.854;2022-12-07T19:36:27;36.25;;;12.75;;
8694;SDS011;65580;49.446;6.854;2022-12-07T19:40:29;25.70;;;11.55;;
8694;SDS011;65580;49.446;6.854;2022-12-07T19:44:32;28.70;;;10.77;;
8694;SDS011;65580;49.446;6.854;2022-12-07T19:48:34;27.52;;;11.40;;
8694;SDS011;65580;49.446;6.854;2022-12-07T19:52:36;32.50;;;11.43;;
8694;SDS011;65580;49.446;6.854;2022-12-07T19:56:38;29.58;;;11.10;;
8694;SDS011;65580;49.446;6.854;2022-12-07T20:00:41;29.00;;;11.57;;
8694;SDS011;65580;49.446;6.854;2022-12-07T20:04:43;28.15;;;10.98;;
8694;SDS011;65580;49.446;6.854;2022-12-07T20:08:45;25.85;;;8.57;;
8694;SDS011;65580;49.446;6.854;2022-12-07T20:12:48;29.90;;;12.20;;
8694;SDS011;65580;49.446;6.854;2022-12-07T20:17:09;28.42;;;12.23;;
8694;SDS011;65580;49.446;6.854;2022-12-07T20:21:10;27.70;;;10.25;;
8694;SDS011;65580;49.446;6.854;2022-12-07T20:25:12;31.15;;;11.88;;
8694;SDS011;65580;49.446;6.854;2022-12-07T20:29:17;25.27;;;10.70;;
8694;SDS011;65580;49.446;6.854;2022-12-07T20:33:22;32.28;;;11.82;;
8694;SDS011;65580;49.446;6.854;2022-12-07T20:37:25;28.48;;;10.55;;
8694;SDS011;65580;49.446;6.854;2022-12-07T20:41:27;27.98;;;11.38;;
8694;SDS011;65580;49.446;6.854;2022-12-07T20:45:46;28.35;;;10.93;;
8694;SDS011;65580;49.446;6.854;2022-12-07T20:49:51;26.50;;;11.38;;
8694;SDS011;65580;49.446;6.854;2022-12-07T20:53:53;24.13;;;10.63;;
8694;SDS011;65580;49.446;6.854;2022-12-07T20:57:55;32.22;;;12.43;;
8694;SDS011;65580;49.446;6.854;2022-12-07T21:01:57;32.67;;;11.63;;
8694;SDS011;65580;49.446;6.854;2022-12-07T21:06:01;27.40;;;11.43;;
8694;SDS011;65580;49.446;6.854;2022-12-07T21:10:04;26.15;;;10.63;;
8694;SDS011;65580;49.446;6.854;2022-12-07T21:14:06;30.20;;;11.00;;
8694;SDS011;65580;49.446;6.854;2022-12-07T21:18:08;29.83;;;10.85;;
8694;SDS011;65580;49.446;6.854;2022-12-07T21:22:12;29.88;;;10.38;;
8694;SDS011;65580;49.446;6.854;2022-12-07T21:26:15;30.23;;;11.90;;
8694;SDS011;65580;49.446;6.854;2022-12-07T21:30:18;33.13;;;11.85;;
8694;SDS011;65580;49.446;6.854;2022-12-07T21:34:20;34.38;;;13.07;;
8694;SDS011;65580;49.446;6.854;2022-12-07T21:38:23;31.95;;;11.93;;
8694;SDS011;65580;49.446;6.854;2022-12-07T21:42:25;31.10;;;11.27;;
8694;SDS011;65580;49.446;6.854;2022-12-07T21:46:27;28.70;;;11.23;;
8694;SDS011;65580;49.446;6.854;2022-12-07T21:50:30;29.50;;;11.88;;
8694;SDS011;65580;49.446;6.854;2022-12-07T21:54:35;34.35;;;12.55;;
8694;SDS011;65580;49.446;6.854;2022-12-07T21:58:39;29.65;;;11.10;;
8694;SDS011;65580;49.446;6.854;2022-12-07T22:02:41;27.85;;;10.98;;
8694;SDS011;65580;49.446;6.854;2022-12-07T22:06:43;28.02;;;10.60;;
8694;SDS011;65580;49.446;6.854;2022-12-07T22:10:47;31.95;;;11.93;;
8694;SDS011;65580;49.446;6.854;2022-12-07T22:14:49;29.77;;;11.32;;
8694;SDS011;65580;49.446;6.854;2022-12-07T22:19:06;37.10;;;12.57;;
8694;SDS011;65580;49.446;6.854;2022-12-07T22:23:08;24.52;;;9.80;;
8694;SDS011;65580;49.446;6.854;2022-12-07T22:27:11;30.88;;;11.48;;
8694;SDS011;65580;49.446;6.854;2022-12-07T22:31:14;30.20;;;11.02;;
8694;SDS011;65580;49.446;6.854;2022-12-07T22:35:18;27.75;;;11.05;;
8694;SDS011;65580;49.446;6.854;2022-12-07T22:39:20;37.28;;;12.63;;
8694;SDS011;65580;49.446;6.854;2022-12-07T22:43:23;29.00;;;11.40;;
8694;SDS011;65580;49.446;6.854;2022-12-07T22:47:26;29.02;;;12.40;;
8694;SDS011;65580;49.446;6.854;2022-12-07T22:51:28;32.08;;;11.93;;
8694;SDS011;65580;49.446;6.854;2022-12-07T22:55:31;32.45;;;11.85;;
8694;SDS011;65580;49.446;6.854;2022-12-07T22:59:34;38.45;;;13.02;;
8694;SDS011;65580;49.446;6.854;2022-12-07T23:03:36;33.05;;;12.10;;
8694;SDS011;65580;49.446;6.854;2022-12-07T23:07:38;34.45;;;12.68;;
8694;SDS011;65580;49.446;6.854;2022-12-07T23:11:40;34.42;;;10.85;;
8694;SDS011;65580;49.446;6.854;2022-12-07T23:16:07;28.83;;;10.82;;
8694;SDS011;65580;49.446;6.854;2022-12-07T23:20:10;31.58;;;10.90;;
8694;SDS011;65580;49.446;6.854;2022-12-07T23:24:13;31.35;;;11.00;;
8694;SDS011;65580;49.446;6.854;2022-12-07T23:28:15;30.65;;;11.07;;
8694;SDS011;65580;49.446;6.854;2022-12-07T23:32:18;34.17;;;11.30;;
8694;SDS011;65580;49.446;6.854;2022-12-07T23:36:20;29.08;;;10.88;;
8694;SDS011;65580;49.446;6.854;2022-12-07T23:40:23;36.90;;;11.40;;
8694;SDS011;65580;49.446;6.854;2022-12-07T23:44:25;35.70;;;13.23;;
8694;SDS011;65580;49.446;6.854;2022-12-07T23:48:28;35.55;;;11.32;;
8694;SDS011;65580;49.446;6.854;2022-12-07T23:52:30;32.55;;;12.40;;
8694;SDS011;65580;49.446;6.854;2022-12-07T23:56:32;34.15;;;11.40;;
